Strona główna
METAR-TAF:

METAR-TAF

Lotnisko :

Port lotniczy Kuwejt

Kuwejt, Kuwejt

Szerokość geograficzna: 29-13N, Długość geograficzna: 047-59E, wysokość: 55 m

Aktualna obserwacja pogody

Raport powstał 10 minut temu, godzina 12:00 UTC
Wiatr 10 kt od północ
Temperatura 45°C
Wilgotność 10%
Ciśnienie 999 hPa
Widzialność 10 km lub więcej
Brak chmur poniżej 1500 m i brak chmur cumulonimbus

METAR: OKBK 161200Z 35010KT CAVOK 45/07 Q0999 NOSIG

czas: 15:10 (12:10 UTC)

Prognoza

Raport powstał 1 godzina i 25 minut temu, godzina 10:45 UTC
Prognoza ważna od 16 godzina 12 UTC do 17 godzina 18 UTC
Wiatr 12 kt od północno-północny zachód
Widzialność: 8000 m
bezchmurnie
Przejściowo
od 16 godzina 12 UTC do 16 godzina 18 UTC
Wiatr 3 kt z kierunków zmiennych

TAF: OKBK 161045Z 1612/1718 34012KT 8000 SKC TEMPO 1612/1618 VRB03KT

Obserwacja i prognoza pogody dla ponad 4000 lotnisk (raport METAR i TAF).

Dostępne stacje oznaczono żółtymi i czerwonymi punktami na mapie.

Najedź kursorem aby zobaczyć nazwę stacji.

Kliknij aby zobaczyć obserwacje i prognozy pogody.

Aby zmienić mapę: kliknij na zielony przycisk z czarnym krzyżykiem, aby powiększyć; na zielony przycisk z myślnikiem, aby pomniejszyć; na zielone strzałki, aby przejść do map sąsiednich.


METAR-TAF: